Time;durP1;ratioP1;P1;durP2;ratioP2;P2;SDS_P1;SDS_P2;PMS_P1;PMS_P2;Temp;Humidity;BMP_temperature;BMP_pressure;BME280_temperature;BME280_humidity;BME280_pressure;Samples;Min_cycle;Max_cycle;Signal;HPM_P1;HPM_P2
2023/09/14 00:00:54;;;;;;;12.60;6.40;;;18.90;79.60;;;;;;4972215;28;20411;-75
2023/09/14 00:03:19;;;;;;;13.53;7.17;;;18.80;79.70;;;;;;4967695;28;20450;-74
2023/09/14 00:05:48;;;;;;;11.93;7.10;;;18.70;80.00;;;;;;4967963;28;20224;-76
2023/09/14 00:08:14;;;;;;;12.20;6.80;;;18.50;80.80;;;;;;4972397;28;20190;-75
2023/09/14 00:10:40;;;;;;;10.93;7.23;;;18.50;81.10;;;;;;4973032;28;20935;-73
2023/09/14 00:13:07;;;;;;;13.20;7.43;;;18.50;81.10;;;;;;4974360;28;20559;-76
2023/09/14 00:15:33;;;;;;;10.33;6.63;;;18.40;81.20;;;;;;4969183;28;20456;-75
2023/09/14 00:17:59;;;;;;;14.07;7.63;;;18.40;81.40;;;;;;4972633;28;20489;-77
2023/09/14 00:20:27;;;;;;;11.90;7.40;;;18.40;81.40;;;;;;4972445;28;20446;-76
2023/09/14 00:22:54;;;;;;;10.60;6.40;;;18.30;81.40;;;;;;4972362;28;20925;-76
2023/09/14 00:25:21;;;;;;;11.77;7.20;;;18.30;81.50;;;;;;4969495;28;20565;-76
2023/09/14 00:27:47;;;;;;;15.63;7.63;;;18.40;81.50;;;;;;4973056;28;20448;-75
2023/09/14 00:30:14;;;;;;;12.13;6.70;;;18.40;81.20;;;;;;4973039;28;20440;-75
2023/09/14 00:32:40;;;;;;;15.90;7.60;;;18.30;81.40;;;;;;4979669;28;20832;-75
2023/09/14 00:35:12;;;;;;;12.03;6.63;;;18.20;81.70;;;;;;4975007;28;20480;-76
2023/09/14 00:37:38;;;;;;;11.90;7.30;;;18.30;81.70;;;;;;4986133;28;20463;-74
2023/09/14 00:40:12;;;;;;;11.27;7.30;;;18.20;81.70;;;;;;4981983;28;20441;-75
2023/09/14 00:42:42;;;;;;;11.17;7.37;;;18.20;81.80;;;;;;4985024;28;20428;-76
2023/09/14 00:45:09;;;;;;;12.07;7.00;;;18.30;81.70;;;;;;4983776;28;20470;-76
2023/09/14 00:47:36;;;;;;;12.13;7.30;;;18.10;81.80;;;;;;4981869;28;20433;-75
2023/09/14 00:50:06;;;;;;;12.60;6.80;;;18.10;81.90;;;;;;4979958;28;20423;-76
2023/09/14 00:52:37;;;;;;;13.60;7.47;;;18.00;82.20;;;;;;4971595;28;20508;-75
2023/09/14 00:55:05;;;;;;;11.90;7.50;;;18.10;82.50;;;;;;4974079;28;20504;-75
2023/09/14 00:57:32;;;;;;;12.57;7.70;;;18.00;82.40;;;;;;4976358;28;20469;-74
2023/09/14 00:59:58;;;;;;;10.37;6.93;;;18.10;82.40;;;;;;4979193;28;20442;-74
2023/09/14 01:02:26;;;;;;;12.93;7.67;;;18.10;81.90;;;;;;4975727;28;20447;-75
2023/09/14 01:04:52;;;;;;;12.80;8.23;;;18.10;82.20;;;;;;4968493;28;21003;-75
2023/09/14 01:07:18;;;;;;;12.40;8.20;;;18.00;82.40;;;;;;4989216;28;20443;-74
2023/09/14 01:09:44;;;;;;;16.67;8.00;;;18.00;82.40;;;;;;4977739;28;20965;-75
2023/09/14 01:12:10;;;;;;;19.17;9.23;;;18.00;82.20;;;;;;4974143;28;20617;-74
2023/09/14 01:14:51;;;;;;;12.90;8.47;;;18.00;82.40;;;;;;4973484;28;20209;-76
2023/09/14 01:17:53;;;;;;;16.00;8.87;;;17.90;82.50;;;;;;4973765;28;20465;-75
2023/09/14 01:20:49;;;;;;;13.67;7.70;;;17.80;82.70;;;;;;4972882;28;20443;-75
2023/09/14 01:23:36;;;;;;;14.67;9.17;;;17.80;82.80;;;;;;4975433;28;20935;-75
2023/09/14 01:26:02;;;;;;;19.20;8.70;;;17.80;82.80;;;;;;4971793;28;20815;-76
2023/09/14 01:28:28;;;;;;;15.27;8.90;;;17.70;82.80;;;;;;4973489;28;20901;-76
2023/09/14 01:30:54;;;;;;;15.43;8.77;;;17.70;83.00;;;;;;4974778;28;20480;-76
2023/09/14 01:33:24;;;;;;;13.40;7.70;;;17.70;83.10;;;;;;4978777;28;20646;-74
2023/09/14 01:35:58;;;;;;;13.37;7.30;;;17.70;83.10;;;;;;4971061;28;20295;-75
2023/09/14 01:38:25;;;;;;;14.60;9.40;;;17.70;83.00;;;;;;4973949;28;20509;-75
2023/09/14 01:40:51;;;;;;;17.70;9.70;;;17.60;83.00;;;;;;4969590;28;20451;-74
2023/09/14 01:43:18;;;;;;;15.73;9.60;;;17.50;83.30;;;;;;4973754;28;20952;-75
2023/09/14 01:45:44;;;;;;;14.53;9.03;;;17.50;83.60;;;;;;4970422;28;20470;-73
2023/09/14 01:48:18;;;;;;;14.80;8.47;;;17.50;83.60;;;;;;4978145;28;21050;-74
2023/09/14 01:50:44;;;;;;;12.93;7.67;;;17.60;83.60;;;;;;4979029;28;20446;-74
2023/09/14 01:53:10;;;;;;;13.73;8.53;;;17.50;83.60;;;;;;4971138;28;20450;-75
2023/09/14 01:55:36;;;;;;;16.50;9.10;;;17.50;83.60;;;;;;4979229;28;20202;-74
2023/09/14 01:58:02;;;;;;;16.43;9.17;;;17.50;83.60;;;;;;4976480;28;20546;-74
2023/09/14 02:00:28;;;;;;;15.53;8.17;;;17.50;83.70;;;;;;4978689;28;20230;-75
2023/09/14 02:02:53;;;;;;;17.50;9.23;;;17.50;83.60;;;;;;4977519;28;20188;-76
2023/09/14 02:05:19;;;;;;;19.70;8.40;;;17.50;83.60;;;;;;4972383;28;20208;-76
2023/09/14 02:07:46;;;;;;;13.63;8.17;;;17.50;83.70;;;;;;4977006;28;20583;-75
2023/09/14 02:10:12;;;;;;;16.40;9.30;;;17.50;83.70;;;;;;4974053;28;20461;-75
2023/09/14 02:12:38;;;;;;;22.47;10.07;;;17.50;83.60;;;;;;4970879;28;20551;-76
2023/09/14 02:15:04;;;;;;;16.23;8.47;;;17.50;83.40;;;;;;4971691;28;20551;-74
2023/09/14 02:17:30;;;;;;;13.77;7.77;;;17.50;83.60;;;;;;4973831;28;20215;-76
2023/09/14 02:19:56;;;;;;;13.30;8.03;;;17.60;83.40;;;;;;4973369;28;20531;-76
2023/09/14 02:22:22;;;;;;;13.17;7.50;;;17.70;83.30;;;;;;4973000;28;20492;-76
2023/09/14 02:24:48;;;;;;;12.93;7.80;;;17.70;83.10;;;;;;4969612;28;20462;-75
2023/09/14 02:27:14;;;;;;;12.27;7.27;;;17.80;82.80;;;;;;4976553;28;20546;-75
2023/09/14 02:29:39;;;;;;;12.83;7.90;;;17.80;82.40;;;;;;4970673;28;20198;-73
2023/09/14 02:32:07;;;;;;;13.47;6.90;;;17.70;82.20;;;;;;4981321;28;20190;-75
2023/09/14 02:34:32;;;;;;;9.60;6.40;;;17.80;82.20;;;;;;4972308;28;20184;-75
2023/09/14 02:36:58;;;;;;;10.30;6.40;;;17.80;81.90;;;;;;4970514;28;20451;-75
2023/09/14 02:39:23;;;;;;;9.30;6.10;;;17.70;82.20;;;;;;4972567;28;20188;-75
2023/09/14 02:41:49;;;;;;;9.93;6.27;;;17.80;82.20;;;;;;4977502;28;20657;-73
2023/09/14 02:44:15;;;;;;;13.80;6.80;;;17.80;82.10;;;;;;4972683;28;20183;-74
2023/09/14 02:46:40;;;;;;;9.97;6.80;;;17.90;81.70;;;;;;4973512;28;20708;-76
2023/09/14 02:49:06;;;;;;;11.97;6.70;;;17.80;81.50;;;;;;4973891;28;20230;-75
2023/09/14 02:51:31;;;;;;;9.50;6.27;;;17.80;81.80;;;;;;4973626;28;20188;-76
2023/09/14 02:53:57;;;;;;;12.93;6.77;;;17.80;81.90;;;;;;4975076;28;20188;-75
2023/09/14 02:56:22;;;;;;;8.77;5.93;;;17.90;81.70;;;;;;4974018;28;20621;-75
2023/09/14 02:58:51;;;;;;;11.03;6.67;;;17.80;81.70;;;;;;4974934;28;20238;-76
2023/09/14 03:01:16;;;;;;;11.93;5.90;;;17.90;81.50;;;;;;4978959;28;20242;-74
2023/09/14 03:03:42;;;;;;;9.57;5.73;;;17.80;81.40;;;;;;4977213;28;20955;-75
2023/09/14 03:06:08;;;;;;;13.23;7.10;;;17.80;81.20;;;;;;4969960;28;20202;-75
2023/09/14 03:08:33;;;;;;;14.37;7.03;;;17.70;81.20;;;;;;4968954;28;20202;-74
2023/09/14 03:11:00;;;;;;;10.07;6.43;;;17.60;81.50;;;;;;4973407;28;20205;-75
2023/09/14 03:13:25;;;;;;;9.17;6.03;;;17.50;81.70;;;;;;4973455;28;20207;-75
2023/09/14 03:16:00;;;;;;;9.23;6.23;;;17.60;81.70;;;;;;4976584;28;21028;-74
2023/09/14 03:18:25;;;;;;;9.03;6.03;;;17.70;81.70;;;;;;4975013;28;20215;-76
2023/09/14 03:20:56;;;;;;;8.43;4.87;;;17.70;81.50;;;;;;4980231;28;20437;-74
2023/09/14 03:23:23;;;;;;;8.27;5.57;;;17.80;81.40;;;;;;4974918;28;20187;-75
2023/09/14 03:25:49;;;;;;;9.13;5.63;;;17.90;80.80;;;;;;4969037;28;20454;-75
2023/09/14 03:28:16;;;;;;;7.80;5.23;;;17.90;80.60;;;;;;4971777;28;20449;-74
2023/09/14 03:30:41;;;;;;;8.63;5.50;;;17.90;80.50;;;;;;4971024;28;20425;-74
2023/09/14 03:33:08;;;;;;;7.47;5.13;;;17.90;80.60;;;;;;4975538;28;20482;-75
2023/09/14 03:35:34;;;;;;;8.40;5.30;;;18.00;80.00;;;;;;4970013;28;20227;-75
2023/09/14 03:38:01;;;;;;;8.67;5.97;;;17.90;79.90;;;;;;4973226;28;20501;-75
2023/09/14 03:40:26;;;;;;;11.00;4.90;;;17.80;80.30;;;;;;4979048;28;20461;-75
2023/09/14 03:42:52;;;;;;;10.60;6.37;;;17.80;80.20;;;;;;4977434;28;20935;-77
2023/09/14 03:45:18;;;;;;;12.37;5.83;;;17.70;80.20;;;;;;4975596;28;20306;-76
2023/09/14 03:47:43;;;;;;;9.77;6.17;;;17.70;80.30;;;;;;4977949;28;20210;-74
2023/09/14 03:50:10;;;;;;;11.30;6.50;;;17.70;80.00;;;;;;4969170;28;20346;-75
2023/09/14 03:52:36;;;;;;;9.73;6.07;;;17.50;80.00;;;;;;4971493;28;20227;-74
2023/09/14 03:55:02;;;;;;;14.80;6.00;;;17.50;80.20;;;;;;4966328;28;21291;-75
2023/09/14 03:57:29;;;;;;;10.13;5.33;;;17.50;80.50;;;;;;4971045;28;20535;-74
2023/09/14 03:59:56;;;;;;;7.73;5.10;;;17.60;80.50;;;;;;4973489;28;20443;-76
2023/09/14 04:02:23;;;;;;;11.50;5.80;;;17.60;80.30;;;;;;4974634;28;20537;-77
2023/09/14 04:04:49;;;;;;;9.40;5.53;;;17.60;80.00;;;;;;4973855;28;20469;-75
2023/09/14 04:07:15;;;;;;;9.13;5.70;;;17.70;79.70;;;;;;4972418;28;20447;-76
2023/09/14 04:09:41;;;;;;;8.93;5.47;;;17.60;79.70;;;;;;4979038;28;20198;-76
2023/09/14 04:12:07;;;;;;;9.77;6.07;;;17.50;79.90;;;;;;4976907;28;20246;-76
2023/09/14 04:14:33;;;;;;;14.57;6.60;;;17.60;80.30;;;;;;4982641;28;20452;-75
2023/09/14 04:17:00;;;;;;;13.33;6.60;;;17.50;80.60;;;;;;4973819;28;21025;-75
2023/09/14 04:19:26;;;;;;;9.60;5.77;;;17.40;80.80;;;;;;4977877;28;20184;-75
2023/09/14 04:21:52;;;;;;;9.63;5.97;;;17.40;80.80;;;;;;4986394;28;20517;-75
2023/09/14 04:24:18;;;;;;;9.10;5.60;;;17.40;80.80;;;;;;4975342;28;21187;-76
2023/09/14 04:26:44;;;;;;;8.63;5.67;;;17.40;80.60;;;;;;4974676;28;20299;-75
2023/09/14 04:29:11;;;;;;;9.10;5.77;;;17.40;80.80;;;;;;4974898;28;20446;-76
2023/09/14 04:31:40;;;;;;;12.10;6.60;;;17.40;80.80;;;;;;4976157;28;20187;-75
2023/09/14 04:34:06;;;;;;;8.70;6.10;;;17.50;80.60;;;;;;4973073;28;20458;-73
2023/09/14 04:36:32;;;;;;;10.97;6.70;;;17.50;80.30;;;;;;4975052;28;20468;-73
2023/09/14 04:39:00;;;;;;;9.67;5.60;;;17.50;80.20;;;;;;4973922;28;21002;-74
2023/09/14 04:41:25;;;;;;;9.50;5.73;;;17.50;80.20;;;;;;4974503;28;20594;-76
2023/09/14 04:43:51;;;;;;;11.97;7.07;;;17.40;80.30;;;;;;4973629;28;20506;-74
2023/09/14 04:46:16;;;;;;;10.67;6.83;;;17.40;80.80;;;;;;4972482;28;20203;-71
2023/09/14 04:48:42;;;;;;;11.30;6.87;;;17.50;80.90;;;;;;4974333;28;20191;-73
2023/09/14 04:51:08;;;;;;;10.43;6.37;;;17.50;80.80;;;;;;4974876;28;20271;-75
2023/09/14 04:53:34;;;;;;;11.77;6.77;;;17.40;81.40;;;;;;4972561;28;20448;-73
2023/09/14 04:55:59;;;;;;;10.70;7.63;;;17.30;82.10;;;;;;4975446;28;20223;-75
2023/09/14 04:58:25;;;;;;;10.63;6.10;;;17.20;82.50;;;;;;4976238;28;20210;-73
2023/09/14 05:00:51;;;;;;;11.90;7.13;;;17.10;83.10;;;;;;4971288;28;20187;-72
2023/09/14 05:03:17;;;;;;;13.23;8.07;;;17.10;83.10;;;;;;4973039;28;20179;-76
2023/09/14 05:05:48;;;;;;;12.47;7.20;;;17.10;83.40;;;;;;4976434;28;20490;-73
2023/09/14 05:08:14;;;;;;;10.17;6.30;;;17.10;83.60;;;;;;4970045;28;20439;-74
2023/09/14 05:10:39;;;;;;;12.97;6.87;;;17.00;83.40;;;;;;4970012;28;20589;-72
2023/09/14 05:13:05;;;;;;;15.40;7.27;;;17.00;83.70;;;;;;4975673;28;20195;-76
2023/09/14 05:15:31;;;;;;;13.37;7.50;;;17.00;83.70;;;;;;4973147;28;20237;-73
2023/09/14 05:17:56;;;;;;;12.10;7.50;;;17.00;83.80;;;;;;4972581;28;20404;-74
2023/09/14 05:20:22;;;;;;;12.10;7.37;;;17.00;83.80;;;;;;4974647;28;20175;-74
2023/09/14 05:22:47;;;;;;;10.00;6.47;;;17.00;83.80;;;;;;4974489;28;20207;-74
2023/09/14 05:25:14;;;;;;;9.70;6.43;;;17.00;83.80;;;;;;4972103;28;20214;-74
2023/09/14 05:27:41;;;;;;;10.63;6.20;;;17.00;84.00;;;;;;4975666;28;20254;-75
2023/09/14 05:30:09;;;;;;;9.20;6.03;;;17.00;84.00;;;;;;4974551;28;20426;-75
2023/09/14 05:32:35;;;;;;;10.03;5.77;;;17.00;83.70;;;;;;4977791;28;21138;-74
2023/09/14 05:35:02;;;;;;;12.30;5.70;;;17.10;83.40;;;;;;4975349;28;21408;-74
2023/09/14 05:37:28;;;;;;;9.93;6.30;;;17.20;83.00;;;;;;4972027;28;20467;-76
2023/09/14 05:39:54;;;;;;;8.90;5.70;;;17.20;82.80;;;;;;4973610;28;20433;-74
2023/09/14 05:42:21;;;;;;;12.43;6.50;;;17.30;82.70;;;;;;4974039;28;20252;-75
2023/09/14 05:44:48;;;;;;;10.90;5.83;;;17.30;82.50;;;;;;4968592;28;20513;-73
2023/09/14 05:47:14;;;;;;;10.67;6.20;;;17.30;82.40;;;;;;4973728;28;20439;-74
2023/09/14 05:49:41;;;;;;;10.10;5.90;;;17.40;82.20;;;;;;4973238;28;20438;-74
2023/09/14 05:52:06;;;;;;;9.73;6.20;;;17.40;82.20;;;;;;4974889;28;20428;-74
2023/09/14 05:54:32;;;;;;;12.57;7.90;;;17.50;82.10;;;;;;4975917;28;20991;-73
2023/09/14 05:56:58;;;;;;;15.70;9.00;;;17.50;81.90;;;;;;4971232;28;20197;-75
2023/09/14 05:59:23;;;;;;;16.17;9.20;;;17.50;81.70;;;;;;4972912;28;20175;-74
2023/09/14 06:01:50;;;;;;;16.30;9.50;;;17.50;81.90;;;;;;4972988;28;20175;-75
2023/09/14 06:04:16;;;;;;;16.47;9.70;;;17.50;81.90;;;;;;4972797;28;20530;-75
2023/09/14 06:06:42;;;;;;;15.73;9.57;;;17.60;81.90;;;;;;4971154;28;20547;-76
2023/09/14 06:09:08;;;;;;;18.03;10.00;;;17.60;81.80;;;;;;4980581;28;20466;-73
2023/09/14 06:11:33;;;;;;;19.67;8.97;;;17.60;81.70;;;;;;4980604;28;20204;-74
2023/09/14 06:13:59;;;;;;;17.33;9.60;;;17.70;81.70;;;;;;4976186;28;20207;-75
2023/09/14 06:16:25;;;;;;;19.03;10.03;;;17.70;81.50;;;;;;4972361;28;20203;-75
2023/09/14 06:18:50;;;;;;;20.40;9.83;;;17.70;81.50;;;;;;4969693;28;20219;-75
2023/09/14 06:21:16;;;;;;;17.17;9.70;;;17.70;81.50;;;;;;4969569;28;20191;-73
2023/09/14 06:23:41;;;;;;;19.20;10.90;;;17.80;81.50;;;;;;4975458;28;20735;-73
2023/09/14 06:26:07;;;;;;;16.80;9.20;;;17.80;81.20;;;;;;4969926;28;20846;-73
2023/09/14 06:28:32;;;;;;;14.60;8.47;;;17.70;81.20;;;;;;4974608;28;21489;-75
2023/09/14 06:30:59;;;;;;;19.03;9.37;;;17.80;81.40;;;;;;4973204;28;20716;-74
2023/09/14 06:33:24;;;;;;;16.20;9.47;;;17.80;81.20;;;;;;4972464;28;20564;-74
2023/09/14 06:35:50;;;;;;;17.57;9.37;;;17.80;81.20;;;;;;4971434;28;20468;-72
2023/09/14 06:38:16;;;;;;;18.50;9.37;;;17.80;81.10;;;;;;4974829;28;20205;-73
2023/09/14 06:40:41;;;;;;;22.30;10.83;;;17.80;81.40;;;;;;4972139;28;20186;-76
2023/09/14 06:43:07;;;;;;;17.40;8.93;;;17.80;81.10;;;;;;4972733;28;20263;-76
2023/09/14 06:45:33;;;;;;;17.23;9.93;;;17.80;81.10;;;;;;4967631;28;20212;-75
2023/09/14 06:47:59;;;;;;;21.80;8.60;;;17.80;80.90;;;;;;4976179;28;20802;-74
2023/09/14 06:50:24;;;;;;;18.80;8.93;;;17.70;81.10;;;;;;4977671;28;20438;-75
2023/09/14 06:52:50;;;;;;;20.23;10.27;;;17.70;81.10;;;;;;4969856;28;20447;-74
2023/09/14 06:55:16;;;;;;;15.03;8.33;;;17.70;81.10;;;;;;4970464;28;20223;-75
2023/09/14 06:57:42;;;;;;;14.63;7.90;;;17.80;80.90;;;;;;4969275;28;20479;-75
2023/09/14 07:00:14;;;;;;;14.27;7.47;;;18.00;80.30;;;;;;4978613;28;20221;-74
2023/09/14 07:02:41;;;;;;;15.37;8.97;;;18.00;80.00;;;;;;4979040;28;20275;-74
2023/09/14 07:05:10;;;;;;;17.00;9.00;;;18.10;79.90;;;;;;4962965;28;20495;-75
2023/09/14 07:07:38;;;;;;;16.10;8.70;;;17.90;79.90;;;;;;4981710;28;20463;-74
2023/09/14 07:10:05;;;;;;;22.73;8.40;;;17.90;80.50;;;;;;4974559;28;20466;-75
2023/09/14 07:12:31;;;;;;;15.20;8.80;;;18.00;80.00;;;;;;4984082;28;20488;-75
2023/09/14 07:14:58;;;;;;;20.97;9.37;;;18.00;79.90;;;;;;4974222;28;20539;-77
2023/09/14 07:17:24;;;;;;;15.03;7.97;;;17.90;80.20;;;;;;4979592;28;20703;-76
2023/09/14 07:19:50;;;;;;;15.57;8.27;;;18.00;80.20;;;;;;4980347;28;20441;-75
2023/09/14 07:22:16;;;;;;;14.93;8.50;;;18.10;79.90;;;;;;4984873;28;20513;-73
2023/09/14 07:24:42;;;;;;;20.30;8.90;;;18.00;79.60;;;;;;4976690;28;20182;-73
2023/09/14 07:27:07;;;;;;;16.80;8.73;;;18.00;79.90;;;;;;4973247;28;20429;-74
2023/09/14 07:29:33;;;;;;;21.97;9.67;;;18.00;79.90;;;;;;4971951;28;20653;-73
2023/09/14 07:31:58;;;;;;;16.90;8.57;;;18.10;79.70;;;;;;4972169;28;20185;-74
2023/09/14 07:34:24;;;;;;;15.43;8.87;;;18.20;79.60;;;;;;4970706;28;20192;-74
2023/09/14 07:36:50;;;;;;;13.57;8.37;;;18.20;79.60;;;;;;4970303;28;20880;-75
2023/09/14 07:39:15;;;;;;;14.63;7.90;;;18.30;79.30;;;;;;4975555;28;20230;-75
2023/09/14 07:41:41;;;;;;;16.27;9.70;;;18.30;79.30;;;;;;4976682;28;20209;-73
2023/09/14 07:44:07;;;;;;;19.10;9.67;;;18.30;78.90;;;;;;4975086;28;20619;-75
2023/09/14 07:46:33;;;;;;;20.57;10.73;;;18.40;78.40;;;;;;4970755;28;20198;-75
2023/09/14 07:48:59;;;;;;;18.37;10.50;;;18.30;78.40;;;;;;4974852;28;20608;-74
2023/09/14 07:51:25;;;;;;;18.10;9.90;;;18.30;78.40;;;;;;4976451;28;20189;-76
2023/09/14 07:53:51;;;;;;;16.33;10.33;;;18.30;78.40;;;;;;4975942;28;20446;-74
2023/09/14 07:56:17;;;;;;;18.57;9.80;;;18.20;78.40;;;;;;4975557;28;20201;-74
2023/09/14 07:58:42;;;;;;;17.70;10.50;;;18.10;78.60;;;;;;4977266;28;20782;-74
2023/09/14 08:01:08;;;;;;;17.77;10.30;;;18.00;78.90;;;;;;4978178;28;20178;-75
2023/09/14 08:03:33;;;;;;;19.70;11.13;;;18.10;79.00;;;;;;4980978;28;20180;-74
2023/09/14 08:05:59;;;;;;;21.70;11.67;;;18.10;78.70;;;;;;4980564;28;20224;-75
2023/09/14 08:08:24;;;;;;;14.57;8.03;;;18.20;78.60;;;;;;4989031;28;20181;-75
2023/09/14 08:10:51;;;;;;;20.37;9.70;;;18.30;78.70;;;;;;4989514;28;20204;-74
2023/09/14 08:13:17;;;;;;;20.00;9.77;;;18.30;78.60;;;;;;4990745;28;20198;-76
2023/09/14 08:15:43;;;;;;;16.80;9.97;;;18.40;78.10;;;;;;4976132;28;20469;-76
2023/09/14 08:18:09;;;;;;;13.47;8.60;;;18.40;77.70;;;;;;4984777;28;20471;-77
2023/09/14 08:20:44;;;;;;;13.80;8.30;;;18.40;77.70;;;;;;4978352;28;20790;-74
2023/09/14 08:23:12;;;;;;;13.47;7.50;;;18.50;77.40;;;;;;4977398;28;20650;-74
2023/09/14 08:25:43;;;;;;;14.03;8.20;;;18.60;77.00;;;;;;4976223;28;21034;-74
2023/09/14 08:28:10;;;;;;;16.40;9.27;;;18.70;77.10;;;;;;4975596;28;20447;-74
2023/09/14 08:30:37;;;;;;;15.67;9.50;;;18.80;76.50;;;;;;4974308;28;20865;-77
2023/09/14 08:33:03;;;;;;;14.80;9.30;;;18.70;76.10;;;;;;4973229;28;20508;-74
2023/09/14 08:35:31;;;;;;;14.70;8.60;;;18.70;76.70;;;;;;4972382;28;20520;-74
2023/09/14 08:37:57;;;;;;;11.63;7.87;;;18.90;76.50;;;;;;4973978;28;20481;-75
2023/09/14 08:40:24;;;;;;;15.17;8.30;;;18.90;76.10;;;;;;4972829;28;20819;-72
2023/09/14 08:42:53;;;;;;;14.90;8.40;;;19.10;75.40;;;;;;4979700;28;20431;-74
2023/09/14 08:45:24;;;;;;;16.33;8.83;;;19.20;75.10;;;;;;4971703;28;20986;-75
2023/09/14 08:47:51;;;;;;;16.40;9.17;;;19.00;74.90;;;;;;4973955;28;20419;-75
2023/09/14 08:50:23;;;;;;;14.63;8.80;;;19.00;75.20;;;;;;4973761;28;20993;-75
2023/09/14 08:52:49;;;;;;;10.40;6.83;;;19.00;75.70;;;;;;4970906;28;20483;-74
2023/09/14 08:55:16;;;;;;;15.13;7.30;;;19.10;75.50;;;;;;4975495;28;20464;-73
2023/09/14 08:57:44;;;;;;;14.87;8.17;;;19.30;75.10;;;;;;4975452;28;20465;-74
2023/09/14 09:00:17;;;;;;;11.17;7.20;;;19.40;74.00;;;;;;4972361;28;20461;-74
2023/09/14 09:02:54;;;;;;;17.50;7.93;;;19.30;74.20;;;;;;4973442;28;20438;-72
2023/09/14 09:05:21;;;;;;;15.53;7.80;;;19.50;74.20;;;;;;4980969;28;20469;-75
2023/09/14 09:07:48;;;;;;;13.90;8.10;;;19.40;74.00;;;;;;4981389;28;20485;-74
2023/09/14 09:10:25;;;;;;;15.87;9.10;;;19.50;73.60;;;;;;4985424;28;20437;-73
2023/09/14 09:12:53;;;;;;;14.43;8.10;;;19.60;73.00;;;;;;4977625;28;20513;-75
2023/09/14 09:15:18;;;;;;;11.80;7.13;;;19.70;73.20;;;;;;4987095;28;20832;-73
2023/09/14 09:17:44;;;;;;;17.13;8.70;;;19.80;73.20;;;;;;4974983;28;20538;-75
2023/09/14 09:20:16;;;;;;;13.90;7.10;;;20.00;73.00;;;;;;4973271;28;20195;-74
2023/09/14 09:22:45;;;;;;;13.43;7.77;;;20.20;72.00;;;;;;4971013;28;20214;-75
2023/09/14 09:25:13;;;;;;;14.80;8.30;;;20.20;71.30;;;;;;4972786;28;21040;-74
2023/09/14 09:27:39;;;;;;;15.13;7.67;;;19.80;71.70;;;;;;4971997;28;20448;-73
2023/09/14 09:30:09;;;;;;;13.77;7.70;;;19.70;72.90;;;;;;4972418;28;20275;-74
2023/09/14 09:32:37;;;;;;;13.23;7.43;;;19.60;72.60;;;;;;4973769;28;20549;-74
2023/09/14 09:35:20;;;;;;;27.10;8.27;;;19.50;73.20;;;;;;4975193;28;20502;-75
2023/09/14 09:37:47;;;;;;;11.60;7.23;;;19.60;72.90;;;;;;4972307;28;20528;-74
2023/09/14 09:40:21;;;;;;;14.13;7.67;;;19.70;73.00;;;;;;4970704;28;20436;-74
2023/09/14 09:42:47;;;;;;;21.10;8.23;;;19.80;72.60;;;;;;4982380;28;20426;-74
2023/09/14 09:45:13;;;;;;;14.03;7.83;;;19.90;72.00;;;;;;4968857;28;20544;-74
2023/09/14 09:47:40;;;;;;;12.20;7.87;;;19.90;72.00;;;;;;4975957;28;20487;-75
2023/09/14 09:50:11;;;;;;;16.53;7.90;;;20.00;71.80;;;;;;4966375;28;20493;-74
2023/09/14 09:52:42;;;;;;;11.50;6.70;;;19.90;71.30;;;;;;4976461;28;20442;-75
2023/09/14 09:55:22;;;;;;;16.37;7.27;;;19.70;72.10;;;;;;4976653;28;20462;-74
2023/09/14 09:57:59;;;;;;;10.17;6.53;;;19.90;72.30;;;;;;4976085;28;21002;-74
2023/09/14 10:00:36;;;;;;;13.80;6.80;;;20.00;71.70;;;;;;4976190;28;20455;-74
2023/09/14 10:03:03;;;;;;;15.80;8.60;;;20.20;71.30;;;;;;4975072;28;20531;-75
2023/09/14 10:05:30;;;;;;;10.20;6.40;;;20.20;70.50;;;;;;4971124;28;20538;-75
2023/09/14 10:07:58;;;;;;;12.17;6.60;;;20.30;70.70;;;;;;4974394;28;21088;-74
2023/09/14 10:10:25;;;;;;;14.50;7.33;;;20.40;70.20;;;;;;4970174;28;20443;-74
2023/09/14 10:12:53;;;;;;;12.43;6.93;;;20.50;69.70;;;;;;4977089;28;20462;-75
2023/09/14 10:15:20;;;;;;;15.50;7.50;;;20.50;69.50;;;;;;4969541;28;20494;-75
2023/09/14 10:17:51;;;;;;;12.77;7.67;;;20.50;69.20;;;;;;4970873;28;21011;-74
2023/09/14 10:20:17;;;;;;;10.33;7.33;;;20.20;69.70;;;;;;4972285;28;20434;-75
2023/09/14 10:22:43;;;;;;;10.00;6.70;;;20.00;70.50;;;;;;4971638;28;20947;-74
2023/09/14 10:25:09;;;;;;;11.60;7.17;;;20.20;70.80;;;;;;4975219;28;20997;-74
2023/09/14 10:27:34;;;;;;;14.83;7.20;;;20.30;70.10;;;;;;4972222;28;20462;-76
2023/09/14 10:30:05;;;;;;;12.57;6.50;;;20.40;69.50;;;;;;4971935;28;20210;-74
2023/09/14 10:32:35;;;;;;;12.30;6.73;;;20.50;69.40;;;;;;4971804;28;20196;-73
2023/09/14 10:35:02;;;;;;;11.00;6.60;;;20.70;68.90;;;;;;4968277;28;20465;-75
2023/09/14 10:37:28;;;;;;;10.83;6.63;;;20.80;68.50;;;;;;4971721;28;20539;-75
2023/09/14 10:39:55;;;;;;;11.10;6.90;;;21.00;67.90;;;;;;4982441;28;21055;-75
2023/09/14 10:42:21;;;;;;;13.77;6.60;;;21.00;67.50;;;;;;4973134;28;20444;-74
2023/09/14 10:44:48;;;;;;;8.47;5.53;;;20.90;67.90;;;;;;4974885;28;20470;-76
2023/09/14 10:47:18;;;;;;;10.93;7.10;;;20.80;67.90;;;;;;4975742;28;20433;-73
2023/09/14 10:49:49;;;;;;;8.93;5.97;;;20.90;67.20;;;;;;4974860;28;20431;-73
2023/09/14 10:52:27;;;;;;;10.50;6.57;;;20.70;68.20;;;;;;4975625;28;20439;-75
2023/09/14 10:54:53;;;;;;;9.37;6.00;;;20.80;68.20;;;;;;4976063;28;20474;-75
2023/09/14 10:57:24;;;;;;;9.77;5.90;;;21.00;67.30;;;;;;4981161;28;20620;-75
2023/09/14 10:59:58;;;;;;;13.80;6.03;;;21.10;66.70;;;;;;4981245;28;20457;-76
2023/09/14 11:02:39;;;;;;;9.00;5.30;;;21.50;66.10;;;;;;4978739;28;20906;-75
2023/09/14 11:05:15;;;;;;;10.07;6.50;;;22.00;64.70;;;;;;4976294;28;20466;-74
2023/09/14 11:07:44;;;;;;;9.70;6.10;;;22.40;63.40;;;;;;4975353;28;20472;-74
2023/09/14 11:10:15;;;;;;;8.30;5.80;;;22.40;63.40;;;;;;4972753;28;20431;-74
2023/09/14 11:12:40;;;;;;;11.10;6.40;;;22.70;62.80;;;;;;4968785;28;20953;-73
2023/09/14 11:15:21;;;;;;;9.70;6.97;;;22.80;62.50;;;;;;4973594;28;20492;-74
2023/09/14 11:17:54;;;;;;;9.50;5.50;;;22.90;62.30;;;;;;4973227;28;20217;-75
2023/09/14 11:20:20;;;;;;;14.23;6.47;;;22.70;62.60;;;;;;4975183;28;20429;-76
2023/09/14 11:22:49;;;;;;;10.93;6.70;;;22.60;62.50;;;;;;4971976;28;20502;-73
2023/09/14 11:25:31;;;;;;;8.40;5.30;;;22.30;63.20;;;;;;4968415;28;20208;-74
2023/09/14 11:27:57;;;;;;;9.10;5.73;;;22.40;63.20;;;;;;4968912;28;20887;-75
2023/09/14 11:30:24;;;;;;;10.47;6.37;;;22.40;62.80;;;;;;4977586;28;20442;-76
2023/09/14 11:32:52;;;;;;;11.53;6.80;;;22.70;62.80;;;;;;4976326;28;20439;-75
2023/09/14 11:35:31;;;;;;;11.10;6.00;;;22.80;62.30;;;;;;4971995;28;20460;-75
2023/09/14 11:38:04;;;;;;;11.53;5.40;;;22.80;62.50;;;;;;4979306;28;20488;-76
2023/09/14 11:40:33;;;;;;;9.27;5.67;;;22.90;62.20;;;;;;4975109;28;20442;-74
2023/09/14 11:43:25;;;;;;;7.10;5.10;;;23.00;61.70;;;;;;4984055;28;20944;-75
2023/09/14 11:46:00;;;;;;;6.73;4.70;;;23.10;61.70;;;;;;4993646;28;20940;-73
2023/09/14 11:48:34;;;;;;;8.57;4.97;;;23.60;61.50;;;;;;4998299;28;20442;-74
2023/09/14 11:51:03;;;;;;;7.40;4.80;;;24.30;61.00;;;;;;4995408;28;20436;-73
2023/09/14 11:53:37;;;;;;;8.37;5.47;;;24.60;60.30;;;;;;5000403;28;20444;-74
2023/09/14 11:56:03;;;;;;;9.70;6.13;;;23.90;61.20;;;;;;4994141;28;20462;-75
2023/09/14 11:58:33;;;;;;;8.23;4.57;;;23.30;62.20;;;;;;4980375;28;20486;-76
2023/09/14 12:00:59;;;;;;;8.50;5.23;;;23.20;62.90;;;;;;4974963;28;20442;-76
2023/09/14 12:03:27;;;;;;;11.43;6.63;;;23.50;62.60;;;;;;4976383;28;20426;-75
2023/09/14 12:05:55;;;;;;;7.70;5.37;;;23.30;62.60;;;;;;4971424;28;20213;-74
2023/09/14 12:08:21;;;;;;;6.30;4.70;;;23.30;63.10;;;;;;4972114;28;20433;-74
2023/09/14 12:10:53;;;;;;;11.67;4.87;;;23.00;62.60;;;;;;4974000;28;20914;-77
2023/09/14 12:13:18;;;;;;;7.33;5.00;;;22.80;63.10;;;;;;4975037;28;20204;-75
2023/09/14 12:15:46;;;;;;;9.00;5.53;;;22.80;62.90;;;;;;4973466;28;20914;-75
2023/09/14 12:18:16;;;;;;;7.73;5.23;;;23.00;63.10;;;;;;4974939;28;20222;-75
2023/09/14 12:20:44;;;;;;;9.03;4.63;;;23.40;62.60;;;;;;4978420;28;20456;-75
2023/09/14 12:23:12;;;;;;;9.00;5.40;;;23.70;62.20;;;;;;4982402;28;20539;-75
2023/09/14 12:25:39;;;;;;;8.17;5.13;;;23.90;61.70;;;;;;4988884;28;20587;-74
2023/09/14 12:28:08;;;;;;;6.90;4.63;;;23.20;61.90;;;;;;4981989;28;20450;-75
2023/09/14 12:30:36;;;;;;;7.20;5.03;;;23.10;62.90;;;;;;4979740;28;20436;-76
2023/09/14 12:33:05;;;;;;;7.23;4.80;;;23.20;62.80;;;;;;4978626;28;20935;-76
2023/09/14 12:35:32;;;;;;;9.80;5.70;;;23.40;62.60;;;;;;4975006;28;20547;-75
2023/09/14 12:38:04;;;;;;;9.10;4.13;;;23.10;62.00;;;;;;4977272;28;20977;-76
2023/09/14 12:40:37;;;;;;;6.37;4.50;;;23.50;62.20;;;;;;4977375;28;20453;-75